sensor_id;sensor_type;location;lat;lon;timestamp;temperature;humidity
44166;DHT22;30476;53.468;9.826;2023-09-08T00:01:58;20.50;94.20
44166;DHT22;30476;53.468;9.826;2023-09-08T00:04:24;20.50;94.30
44166;DHT22;30476;53.468;9.826;2023-09-08T00:06:49;20.50;94.40
44166;DHT22;30476;53.468;9.826;2023-09-08T00:09:15;20.40;94.50
44166;DHT22;30476;53.468;9.826;2023-09-08T00:11:41;20.40;94.50
44166;DHT22;30476;53.468;9.826;2023-09-08T00:14:07;20.40;94.50
44166;DHT22;30476;53.468;9.826;2023-09-08T00:16:33;20.40;94.80
44166;DHT22;30476;53.468;9.826;2023-09-08T00:18:58;20.30;94.70
44166;DHT22;30476;53.468;9.826;2023-09-08T00:21:25;20.20;94.90
44166;DHT22;30476;53.468;9.826;2023-09-08T00:23:51;20.20;95.00
44166;DHT22;30476;53.468;9.826;2023-09-08T00:26:17;20.10;95.10
44166;DHT22;30476;53.468;9.826;2023-09-08T00:28:43;20.10;95.30
44166;DHT22;30476;53.468;9.826;2023-09-08T00:31:09;20.10;95.30
44166;DHT22;30476;53.468;9.826;2023-09-08T00:33:34;20.00;95.40
44166;DHT22;30476;53.468;9.826;2023-09-08T00:36:00;20.00;95.40
44166;DHT22;30476;53.468;9.826;2023-09-08T00:38:26;20.00;95.50
44166;DHT22;30476;53.468;9.826;2023-09-08T00:40:52;19.90;95.60
44166;DHT22;30476;53.468;9.826;2023-09-08T00:43:18;19.90;95.70
44166;DHT22;30476;53.468;9.826;2023-09-08T00:45:45;19.90;95.80
44166;DHT22;30476;53.468;9.826;2023-09-08T00:48:12;19.80;95.80
44166;DHT22;30476;53.468;9.826;2023-09-08T00:50:38;19.80;95.90
44166;DHT22;30476;53.468;9.826;2023-09-08T00:53:05;19.80;95.90
44166;DHT22;30476;53.468;9.826;2023-09-08T00:55:32;19.70;95.80
44166;DHT22;30476;53.468;9.826;2023-09-08T00:57:59;19.70;95.80
44166;DHT22;30476;53.468;9.826;2023-09-08T01:00:25;19.70;96.10
44166;DHT22;30476;53.468;9.826;2023-09-08T01:02:52;19.70;95.80
44166;DHT22;30476;53.468;9.826;2023-09-08T01:05:18;19.60;95.70
44166;DHT22;30476;53.468;9.826;2023-09-08T01:07:45;19.60;95.60
44166;DHT22;30476;53.468;9.826;2023-09-08T01:10:13;19.60;95.50
44166;DHT22;30476;53.468;9.826;2023-09-08T01:12:39;19.60;95.60
44166;DHT22;30476;53.468;9.826;2023-09-08T01:15:05;19.60;95.50
44166;DHT22;30476;53.468;9.826;2023-09-08T01:17:31;19.50;95.50
44166;DHT22;30476;53.468;9.826;2023-09-08T01:20:02;19.50;95.60
44166;DHT22;30476;53.468;9.826;2023-09-08T01:25:27;19.50;95.90
44166;DHT22;30476;53.468;9.826;2023-09-08T01:27:55;19.40;95.90
44166;DHT22;30476;53.468;9.826;2023-09-08T01:30:25;19.40;96.00
44166;DHT22;30476;53.468;9.826;2023-09-08T01:32:53;19.40;96.10
44166;DHT22;30476;53.468;9.826;2023-09-08T01:35:20;19.40;96.10
44166;DHT22;30476;53.468;9.826;2023-09-08T01:37:47;19.30;96.10
44166;DHT22;30476;53.468;9.826;2023-09-08T01:40:13;19.30;96.20
44166;DHT22;30476;53.468;9.826;2023-09-08T01:42:40;19.30;96.30
44166;DHT22;30476;53.468;9.826;2023-09-08T01:45:07;19.30;96.30
44166;DHT22;30476;53.468;9.826;2023-09-08T01:47:33;19.20;96.40
44166;DHT22;30476;53.468;9.826;2023-09-08T01:49:59;19.20;96.40
44166;DHT22;30476;53.468;9.826;2023-09-08T01:52:26;19.20;96.40
44166;DHT22;30476;53.468;9.826;2023-09-08T01:54:52;19.20;96.60
44166;DHT22;30476;53.468;9.826;2023-09-08T01:57:18;19.10;96.70
44166;DHT22;30476;53.468;9.826;2023-09-08T02:03:06;19.10;96.80
44166;DHT22;30476;53.468;9.826;2023-09-08T02:05:31;19.10;96.90
44166;DHT22;30476;53.468;9.826;2023-09-08T02:07:57;19.00;97.10
44166;DHT22;30476;53.468;9.826;2023-09-08T02:10:23;19.00;97.20
44166;DHT22;30476;53.468;9.826;2023-09-08T02:12:49;18.90;97.20
44166;DHT22;30476;53.468;9.826;2023-09-08T02:15:14;18.90;97.30
44166;DHT22;30476;53.468;9.826;2023-09-08T02:17:41;18.80;97.30
44166;DHT22;30476;53.468;9.826;2023-09-08T02:20:07;18.80;97.30
44166;DHT22;30476;53.468;9.826;2023-09-08T02:22:33;18.70;97.40
44166;DHT22;30476;53.468;9.826;2023-09-08T02:24:59;18.70;97.50
44166;DHT22;30476;53.468;9.826;2023-09-08T02:27:24;18.70;97.60
44166;DHT22;30476;53.468;9.826;2023-09-08T02:29:50;18.70;97.70
44166;DHT22;30476;53.468;9.826;2023-09-08T02:32:16;18.60;97.70
44166;DHT22;30476;53.468;9.826;2023-09-08T02:34:42;18.60;97.80
44166;DHT22;30476;53.468;9.826;2023-09-08T02:37:08;18.60;97.90
44166;DHT22;30476;53.468;9.826;2023-09-08T02:39:34;18.60;97.90
44166;DHT22;30476;53.468;9.826;2023-09-08T02:42:00;18.60;98.00
44166;DHT22;30476;53.468;9.826;2023-09-08T02:44:25;18.60;98.00
44166;DHT22;30476;53.468;9.826;2023-09-08T02:46:52;18.50;98.00
44166;DHT22;30476;53.468;9.826;2023-09-08T02:49:18;18.60;98.10
44166;DHT22;30476;53.468;9.826;2023-09-08T02:51:44;18.50;98.10
44166;DHT22;30476;53.468;9.826;2023-09-08T02:54:09;18.40;98.10
44166;DHT22;30476;53.468;9.826;2023-09-08T02:56:35;18.40;98.10
44166;DHT22;30476;53.468;9.826;2023-09-08T02:59:01;18.40;98.30
44166;DHT22;30476;53.468;9.826;2023-09-08T03:01:26;18.40;98.30
44166;DHT22;30476;53.468;9.826;2023-09-08T03:03:52;18.40;98.40
44166;DHT22;30476;53.468;9.826;2023-09-08T03:06:19;18.40;98.50
44166;DHT22;30476;53.468;9.826;2023-09-08T03:08:45;18.40;98.40
44166;DHT22;30476;53.468;9.826;2023-09-08T03:11:12;18.40;98.50
44166;DHT22;30476;53.468;9.826;2023-09-08T03:13:38;18.40;98.50
44166;DHT22;30476;53.468;9.826;2023-09-08T03:16:08;18.40;98.60
44166;DHT22;30476;53.468;9.826;2023-09-08T03:18:35;18.40;98.70
44166;DHT22;30476;53.468;9.826;2023-09-08T03:21:02;18.40;98.70
44166;DHT22;30476;53.468;9.826;2023-09-08T03:23:38;18.40;98.80
44166;DHT22;30476;53.468;9.826;2023-09-08T03:26:04;18.40;98.70
44166;DHT22;30476;53.468;9.826;2023-09-08T03:28:31;18.40;98.70
44166;DHT22;30476;53.468;9.826;2023-09-08T03:30:56;18.50;98.80
44166;DHT22;30476;53.468;9.826;2023-09-08T03:33:22;18.60;98.80
44166;DHT22;30476;53.468;9.826;2023-09-08T03:35:48;18.50;98.80
44166;DHT22;30476;53.468;9.826;2023-09-08T03:38:13;18.50;98.80
44166;DHT22;30476;53.468;9.826;2023-09-08T03:40:40;18.50;98.90
44166;DHT22;30476;53.468;9.826;2023-09-08T03:43:06;18.40;98.90
44166;DHT22;30476;53.468;9.826;2023-09-08T03:45:32;18.50;99.00
44166;DHT22;30476;53.468;9.826;2023-09-08T03:47:57;18.40;98.90
44166;DHT22;30476;53.468;9.826;2023-09-08T03:50:23;18.50;99.00
44166;DHT22;30476;53.468;9.826;2023-09-08T03:52:48;18.50;99.00
44166;DHT22;30476;53.468;9.826;2023-09-08T03:55:15;18.50;99.00
44166;DHT22;30476;53.468;9.826;2023-09-08T03:57:40;18.50;99.00
44166;DHT22;30476;53.468;9.826;2023-09-08T04:00:07;18.50;99.00
44166;DHT22;30476;53.468;9.826;2023-09-08T04:02:33;18.50;99.10
44166;DHT22;30476;53.468;9.826;2023-09-08T04:04:59;18.50;99.00
44166;DHT22;30476;53.468;9.826;2023-09-08T04:07:25;18.60;99.10
44166;DHT22;30476;53.468;9.826;2023-09-08T04:09:51;18.50;99.10
44166;DHT22;30476;53.468;9.826;2023-09-08T04:12:16;18.60;99.10
44166;DHT22;30476;53.468;9.826;2023-09-08T04:14:42;18.60;99.10
44166;DHT22;30476;53.468;9.826;2023-09-08T04:17:08;18.60;99.10
44166;DHT22;30476;53.468;9.826;2023-09-08T04:19:33;18.60;99.10
44166;DHT22;30476;53.468;9.826;2023-09-08T04:21:59;18.60;99.10
44166;DHT22;30476;53.468;9.826;2023-09-08T04:24:25;18.50;99.10
44166;DHT22;30476;53.468;9.826;2023-09-08T04:26:51;18.60;99.20
44166;DHT22;30476;53.468;9.826;2023-09-08T04:29:17;18.50;99.20
44166;DHT22;30476;53.468;9.826;2023-09-08T04:31:42;18.50;99.20
44166;DHT22;30476;53.468;9.826;2023-09-08T04:34:08;18.50;99.30
44166;DHT22;30476;53.468;9.826;2023-09-08T04:36:34;18.60;99.30
44166;DHT22;30476;53.468;9.826;2023-09-08T04:38:59;18.60;99.30
44166;DHT22;30476;53.468;9.826;2023-09-08T04:41:25;18.60;99.30
44166;DHT22;30476;53.468;9.826;2023-09-08T04:43:51;18.50;99.40
44166;DHT22;30476;53.468;9.826;2023-09-08T04:46:17;18.60;99.50
44166;DHT22;30476;53.468;9.826;2023-09-08T04:48:43;18.60;99.50
44166;DHT22;30476;53.468;9.826;2023-09-08T04:51:09;18.50;99.50
44166;DHT22;30476;53.468;9.826;2023-09-08T04:53:35;18.50;99.60
44166;DHT22;30476;53.468;9.826;2023-09-08T04:56:02;18.50;99.70
44166;DHT22;30476;53.468;9.826;2023-09-08T04:58:27;18.50;99.80
44166;DHT22;30476;53.468;9.826;2023-09-08T05:00:53;18.50;99.80
44166;DHT22;30476;53.468;9.826;2023-09-08T05:03:19;18.50;99.80
44166;DHT22;30476;53.468;9.826;2023-09-08T05:05:45;18.50;99.90
44166;DHT22;30476;53.468;9.826;2023-09-08T05:08:10;18.50;99.90
44166;DHT22;30476;53.468;9.826;2023-09-08T05:10:36;18.50;99.90
44166;DHT22;30476;53.468;9.826;2023-09-08T05:13:02;18.50;99.90
44166;DHT22;30476;53.468;9.826;2023-09-08T05:15:28;18.50;99.90
44166;DHT22;30476;53.468;9.826;2023-09-08T05:17:56;18.50;99.90
44166;DHT22;30476;53.468;9.826;2023-09-08T05:20:21;18.50;99.90
44166;DHT22;30476;53.468;9.826;2023-09-08T05:22:47;18.40;99.90
44166;DHT22;30476;53.468;9.826;2023-09-08T05:25:13;18.50;99.90
44166;DHT22;30476;53.468;9.826;2023-09-08T05:27:39;18.50;99.90
44166;DHT22;30476;53.468;9.826;2023-09-08T05:30:05;18.50;99.90
44166;DHT22;30476;53.468;9.826;2023-09-08T05:32:31;18.50;99.90
44166;DHT22;30476;53.468;9.826;2023-09-08T05:34:57;18.60;99.90
44166;DHT22;30476;53.468;9.826;2023-09-08T05:37:22;18.60;99.90
44166;DHT22;30476;53.468;9.826;2023-09-08T05:39:48;18.60;99.90
44166;DHT22;30476;53.468;9.826;2023-09-08T05:42:14;18.70;99.90
44166;DHT22;30476;53.468;9.826;2023-09-08T05:44:40;18.70;99.90
44166;DHT22;30476;53.468;9.826;2023-09-08T05:47:05;18.70;99.90
44166;DHT22;30476;53.468;9.826;2023-09-08T05:49:31;18.70;99.90
44166;DHT22;30476;53.468;9.826;2023-09-08T05:51:57;18.70;99.90
44166;DHT22;30476;53.468;9.826;2023-09-08T05:54:23;18.70;99.90
44166;DHT22;30476;53.468;9.826;2023-09-08T05:56:48;18.80;99.90
44166;DHT22;30476;53.468;9.826;2023-09-08T05:59:14;18.80;99.90
44166;DHT22;30476;53.468;9.826;2023-09-08T06:01:40;18.80;99.90
44166;DHT22;30476;53.468;9.826;2023-09-08T06:04:06;18.80;99.90
44166;DHT22;30476;53.468;9.826;2023-09-08T06:06:31;18.80;99.90
44166;DHT22;30476;53.468;9.826;2023-09-08T06:08:57;18.80;99.90
44166;DHT22;30476;53.468;9.826;2023-09-08T06:11:23;18.90;99.90
44166;DHT22;30476;53.468;9.826;2023-09-08T06:13:48;18.90;99.90
44166;DHT22;30476;53.468;9.826;2023-09-08T06:16:14;19.00;99.90
44166;DHT22;30476;53.468;9.826;2023-09-08T06:18:40;19.10;99.90
44166;DHT22;30476;53.468;9.826;2023-09-08T06:21:06;19.10;99.90
44166;DHT22;30476;53.468;9.826;2023-09-08T06:23:35;19.20;99.90
44166;DHT22;30476;53.468;9.826;2023-09-08T06:26:01;19.30;99.90
44166;DHT22;30476;53.468;9.826;2023-09-08T06:28:27;19.30;99.90
44166;DHT22;30476;53.468;9.826;2023-09-08T06:30:53;19.40;99.90
44166;DHT22;30476;53.468;9.826;2023-09-08T06:33:19;19.50;99.90
44166;DHT22;30476;53.468;9.826;2023-09-08T06:35:47;19.50;99.90
44166;DHT22;30476;53.468;9.826;2023-09-08T06:38:12;19.60;99.90
44166;DHT22;30476;53.468;9.826;2023-09-08T06:40:39;19.70;99.80
44166;DHT22;30476;53.468;9.826;2023-09-08T06:43:04;19.80;99.70
44166;DHT22;30476;53.468;9.826;2023-09-08T06:45:30;19.90;99.80
44166;DHT22;30476;53.468;9.826;2023-09-08T06:47:56;20.00;99.80
44166;DHT22;30476;53.468;9.826;2023-09-08T06:50:23;20.10;99.70
44166;DHT22;30476;53.468;9.826;2023-09-08T06:52:52;20.20;99.70
44166;DHT22;30476;53.468;9.826;2023-09-08T06:55:18;20.20;99.70
44166;DHT22;30476;53.468;9.826;2023-09-08T06:57:45;20.30;99.70
44166;DHT22;30476;53.468;9.826;2023-09-08T07:00:12;20.40;99.60
44166;DHT22;30476;53.468;9.826;2023-09-08T07:02:39;20.50;99.30
44166;DHT22;30476;53.468;9.826;2023-09-08T07:05:04;20.60;99.20
44166;DHT22;30476;53.468;9.826;2023-09-08T07:07:34;20.70;99.20
44166;DHT22;30476;53.468;9.826;2023-09-08T07:10:02;20.80;99.10
44166;DHT22;30476;53.468;9.826;2023-09-08T07:12:28;20.90;99.10
44166;DHT22;30476;53.468;9.826;2023-09-08T07:14:54;21.00;99.10
44166;DHT22;30476;53.468;9.826;2023-09-08T07:17:19;21.10;99.00
44166;DHT22;30476;53.468;9.826;2023-09-08T07:19:45;21.10;98.90
44166;DHT22;30476;53.468;9.826;2023-09-08T07:22:11;21.20;99.10
44166;DHT22;30476;53.468;9.826;2023-09-08T07:24:37;21.30;99.00
44166;DHT22;30476;53.468;9.826;2023-09-08T07:27:03;21.40;98.60
44166;DHT22;30476;53.468;9.826;2023-09-08T07:29:28;21.50;98.50
44166;DHT22;30476;53.468;9.826;2023-09-08T07:31:55;21.60;98.30
44166;DHT22;30476;53.468;9.826;2023-09-08T07:34:21;21.70;98.40
44166;DHT22;30476;53.468;9.826;2023-09-08T07:36:47;21.80;98.20
44166;DHT22;30476;53.468;9.826;2023-09-08T07:39:12;21.90;98.10
44166;DHT22;30476;53.468;9.826;2023-09-08T07:41:38;22.00;98.50
44166;DHT22;30476;53.468;9.826;2023-09-08T07:44:06;22.10;98.30
44166;DHT22;30476;53.468;9.826;2023-09-08T07:46:32;22.20;98.10
44166;DHT22;30476;53.468;9.826;2023-09-08T07:49:01;22.30;97.80
44166;DHT22;30476;53.468;9.826;2023-09-08T07:51:27;22.40;97.70
44166;DHT22;30476;53.468;9.826;2023-09-08T07:53:53;22.50;98.10
44166;DHT22;30476;53.468;9.826;2023-09-08T07:56:19;22.60;97.30
44166;DHT22;30476;53.468;9.826;2023-09-08T07:58:45;22.70;97.20
44166;DHT22;30476;53.468;9.826;2023-09-08T08:01:13;22.70;96.90
44166;DHT22;30476;53.468;9.826;2023-09-08T08:03:38;22.80;96.80
44166;DHT22;30476;53.468;9.826;2023-09-08T08:06:04;22.90;96.90
44166;DHT22;30476;53.468;9.826;2023-09-08T08:08:31;23.00;96.90
44166;DHT22;30476;53.468;9.826;2023-09-08T08:10:59;23.20;96.70
44166;DHT22;30476;53.468;9.826;2023-09-08T08:13:25;23.20;97.10
44166;DHT22;30476;53.468;9.826;2023-09-08T08:15:50;23.30;96.90
44166;DHT22;30476;53.468;9.826;2023-09-08T08:18:16;23.50;96.80
44166;DHT22;30476;53.468;9.826;2023-09-08T08:20:42;23.60;96.70
44166;DHT22;30476;53.468;9.826;2023-09-08T08:23:08;23.70;96.40
44166;DHT22;30476;53.468;9.826;2023-09-08T08:25:34;23.80;96.10
44166;DHT22;30476;53.468;9.826;2023-09-08T08:28:00;23.90;96.00
44166;DHT22;30476;53.468;9.826;2023-09-08T08:30:27;24.00;95.80
44166;DHT22;30476;53.468;9.826;2023-09-08T08:32:53;24.10;95.40
44166;DHT22;30476;53.468;9.826;2023-09-08T08:35:19;24.20;95.20
44166;DHT22;30476;53.468;9.826;2023-09-08T08:37:45;24.30;95.20
44166;DHT22;30476;53.468;9.826;2023-09-08T08:40:12;24.40;95.10
44166;DHT22;30476;53.468;9.826;2023-09-08T08:42:38;24.40;94.80
44166;DHT22;30476;53.468;9.826;2023-09-08T08:45:05;24.60;94.90
44166;DHT22;30476;53.468;9.826;2023-09-08T08:47:31;24.70;95.00
44166;DHT22;30476;53.468;9.826;2023-09-08T08:49:58;24.80;95.20
44166;DHT22;30476;53.468;9.826;2023-09-08T08:52:26;24.90;94.90
44166;DHT22;30476;53.468;9.826;2023-09-08T08:54:52;25.00;94.70
44166;DHT22;30476;53.468;9.826;2023-09-08T08:57:18;25.10;94.90
44166;DHT22;30476;53.468;9.826;2023-09-08T08:59:45;25.20;95.00
44166;DHT22;30476;53.468;9.826;2023-09-08T09:02:12;25.30;94.40
44166;DHT22;30476;53.468;9.826;2023-09-08T09:04:38;25.40;94.20
44166;DHT22;30476;53.468;9.826;2023-09-08T09:07:05;25.60;94.20
44166;DHT22;30476;53.468;9.826;2023-09-08T09:09:32;25.60;93.70
44166;DHT22;30476;53.468;9.826;2023-09-08T09:11:57;25.70;93.70
44166;DHT22;30476;53.468;9.826;2023-09-08T09:14:23;25.70;93.50
44166;DHT22;30476;53.468;9.826;2023-09-08T09:16:49;25.90;93.60
44166;DHT22;30476;53.468;9.826;2023-09-08T09:19:20;26.00;93.70
44166;DHT22;30476;53.468;9.826;2023-09-08T09:21:58;26.10;93.30
44166;DHT22;30476;53.468;9.826;2023-09-08T09:24:33;26.30;93.30
44166;DHT22;30476;53.468;9.826;2023-09-08T09:27:00;26.40;92.90
44166;DHT22;30476;53.468;9.826;2023-09-08T09:29:27;26.60;92.90
44166;DHT22;30476;53.468;9.826;2023-09-08T09:31:58;26.70;93.00
44166;DHT22;30476;53.468;9.826;2023-09-08T09:34:27;26.80;92.80
44166;DHT22;30476;53.468;9.826;2023-09-08T09:36:53;27.00;92.30
44166;DHT22;30476;53.468;9.826;2023-09-08T09:39:23;27.10;92.40
44166;DHT22;30476;53.468;9.826;2023-09-08T09:41:53;27.20;92.20
44166;DHT22;30476;53.468;9.826;2023-09-08T09:44:19;27.30;92.10
44166;DHT22;30476;53.468;9.826;2023-09-08T09:46:47;27.40;92.20
44166;DHT22;30476;53.468;9.826;2023-09-08T09:49:16;27.60;91.80
44166;DHT22;30476;53.468;9.826;2023-09-08T09:51:49;27.70;91.20
44166;DHT22;30476;53.468;9.826;2023-09-08T09:54:18;27.80;91.60
44166;DHT22;30476;53.468;9.826;2023-09-08T09:56:44;27.80;91.50
44166;DHT22;30476;53.468;9.826;2023-09-08T09:59:12;28.00;91.40
44166;DHT22;30476;53.468;9.826;2023-09-08T10:01:41;28.10;90.90
44166;DHT22;30476;53.468;9.826;2023-09-08T10:04:08;28.20;90.90
44166;DHT22;30476;53.468;9.826;2023-09-08T10:06:36;28.30;90.80
44166;DHT22;30476;53.468;9.826;2023-09-08T10:09:04;28.50;91.00
44166;DHT22;30476;53.468;9.826;2023-09-08T10:11:49;28.60;90.60
44166;DHT22;30476;53.468;9.826;2023-09-08T10:14:17;28.70;90.20
44166;DHT22;30476;53.468;9.826;2023-09-08T10:16:44;28.80;89.90
44166;DHT22;30476;53.468;9.826;2023-09-08T10:19:11;28.90;90.10
44166;DHT22;30476;53.468;9.826;2023-09-08T10:21:41;28.90;89.40
44166;DHT22;30476;53.468;9.826;2023-09-08T10:24:29;29.10;89.00
44166;DHT22;30476;53.468;9.826;2023-09-08T10:27:03;29.20;88.80
44166;DHT22;30476;53.468;9.826;2023-09-08T10:29:30;29.30;88.40
44166;DHT22;30476;53.468;9.826;2023-09-08T10:31:57;29.50;88.00
44166;DHT22;30476;53.468;9.826;2023-09-08T10:34:24;29.60;87.30
44166;DHT22;30476;53.468;9.826;2023-09-08T10:36:51;29.70;87.40
44166;DHT22;30476;53.468;9.826;2023-09-08T10:39:36;29.80;85.80
44166;DHT22;30476;53.468;9.826;2023-09-08T10:47:24;30.20;85.80
44166;DHT22;30476;53.468;9.826;2023-09-08T10:49:51;30.30;86.10
44166;DHT22;30476;53.468;9.826;2023-09-08T10:52:21;30.40;85.30
44166;DHT22;30476;53.468;9.826;2023-09-08T10:54:48;30.50;85.60
44166;DHT22;30476;53.468;9.826;2023-09-08T10:57:20;30.60;84.30
44166;DHT22;30476;53.468;9.826;2023-09-08T10:59:58;30.80;85.20
44166;DHT22;30476;53.468;9.826;2023-09-08T11:02:36;30.90;83.60
44166;DHT22;30476;53.468;9.826;2023-09-08T11:05:03;31.00;83.70
44166;DHT22;30476;53.468;9.826;2023-09-08T11:07:31;31.20;82.10
44166;DHT22;30476;53.468;9.826;2023-09-08T11:09:59;31.20;81.40
44166;DHT22;30476;53.468;9.826;2023-09-08T11:12:27;31.30;81.80
44166;DHT22;30476;53.468;9.826;2023-09-08T11:14:53;31.30;80.30
44166;DHT22;30476;53.468;9.826;2023-09-08T11:17:18;31.40;80.90
44166;DHT22;30476;53.468;9.826;2023-09-08T11:19:50;31.40;81.30
44166;DHT22;30476;53.468;9.826;2023-09-08T11:22:16;31.40;82.00
44166;DHT22;30476;53.468;9.826;2023-09-08T11:24:43;31.60;82.00
44166;DHT22;30476;53.468;9.826;2023-09-08T11:27:11;31.70;79.10
44166;DHT22;30476;53.468;9.826;2023-09-08T11:29:38;31.80;81.30
44166;DHT22;30476;53.468;9.826;2023-09-08T11:32:09;31.90;79.50
44166;DHT22;30476;53.468;9.826;2023-09-08T11:34:35;32.00;78.30
44166;DHT22;30476;53.468;9.826;2023-09-08T11:37:16;32.10;79.80
44166;DHT22;30476;53.468;9.826;2023-09-08T11:39:45;32.30;78.70
44166;DHT22;30476;53.468;9.826;2023-09-08T11:42:14;32.30;75.90
44166;DHT22;30476;53.468;9.826;2023-09-08T11:44:41;32.50;75.80
44166;DHT22;30476;53.468;9.826;2023-09-08T11:47:08;32.60;75.00
44166;DHT22;30476;53.468;9.826;2023-09-08T11:49:38;32.80;72.80
44166;DHT22;30476;53.468;9.826;2023-09-08T11:52:04;32.90;72.10
44166;DHT22;30476;53.468;9.826;2023-09-08T11:54:39;33.00;72.50
44166;DHT22;30476;53.468;9.826;2023-09-08T11:57:07;33.10;70.70
44166;DHT22;30476;53.468;9.826;2023-09-08T11:59:35;33.30;70.60
44166;DHT22;30476;53.468;9.826;2023-09-08T12:02:01;33.40;69.60
44166;DHT22;30476;53.468;9.826;2023-09-08T12:04:27;33.40;69.10
44166;DHT22;30476;53.468;9.826;2023-09-08T12:06:54;33.50;68.70
44166;DHT22;30476;53.468;9.826;2023-09-08T12:09:21;33.60;69.50
44166;DHT22;30476;53.468;9.826;2023-09-08T12:11:47;33.80;69.80
44166;DHT22;30476;53.468;9.826;2023-09-08T12:14:14;33.90;67.80
44166;DHT22;30476;53.468;9.826;2023-09-08T12:16:41;33.90;65.90
44166;DHT22;30476;53.468;9.826;2023-09-08T12:19:08;34.00;66.20
44166;DHT22;30476;53.468;9.826;2023-09-08T12:21:51;34.10;66.80
44166;DHT22;30476;53.468;9.826;2023-09-08T12:24:19;34.20;66.80
44166;DHT22;30476;53.468;9.826;2023-09-08T12:26:45;34.40;64.60
44166;DHT22;30476;53.468;9.826;2023-09-08T12:29:13;34.50;65.60
44166;DHT22;30476;53.468;9.826;2023-09-08T12:31:39;34.50;63.80
44166;DHT22;30476;53.468;9.826;2023-09-08T12:34:05;34.70;64.40
44166;DHT22;30476;53.468;9.826;2023-09-08T12:36:36;34.80;63.30
44166;DHT22;30476;53.468;9.826;2023-09-08T12:39:04;34.80;63.70
44166;DHT22;30476;53.468;9.826;2023-09-08T12:41:30;34.90;63.00
44166;DHT22;30476;53.468;9.826;2023-09-08T12:43:56;34.90;62.90
44166;DHT22;30476;53.468;9.826;2023-09-08T12:46:21;34.90;63.70
44166;DHT22;30476;53.468;9.826;2023-09-08T12:48:47;35.10;63.20
44166;DHT22;30476;53.468;9.826;2023-09-08T12:51:13;35.20;63.10
44166;DHT22;30476;53.468;9.826;2023-09-08T12:53:39;35.20;62.80
44166;DHT22;30476;53.468;9.826;2023-09-08T12:56:05;35.30;62.20
44166;DHT22;30476;53.468;9.826;2023-09-08T12:58:30;35.40;62.30
44166;DHT22;30476;53.468;9.826;2023-09-08T13:00:56;35.40;61.50
44166;DHT22;30476;53.468;9.826;2023-09-08T13:03:22;35.50;60.00
44166;DHT22;30476;53.468;9.826;2023-09-08T13:05:48;35.60;59.70
44166;DHT22;30476;53.468;9.826;2023-09-08T13:08:14;35.60;59.80
44166;DHT22;30476;53.468;9.826;2023-09-08T13:10:41;35.70;60.20
44166;DHT22;30476;53.468;9.826;2023-09-08T13:13:06;35.70;59.70
44166;DHT22;30476;53.468;9.826;2023-09-08T13:15:32;35.80;58.50
44166;DHT22;30476;53.468;9.826;2023-09-08T13:17:58;35.80;59.40
44166;DHT22;30476;53.468;9.826;2023-09-08T13:20:24;35.90;59.80
44166;DHT22;30476;53.468;9.826;2023-09-08T13:22:50;35.80;59.20
44166;DHT22;30476;53.468;9.826;2023-09-08T13:25:15;35.80;59.10
44166;DHT22;30476;53.468;9.826;2023-09-08T13:27:41;35.80;59.30
44166;DHT22;30476;53.468;9.826;2023-09-08T13:30:12;35.90;58.70
44166;DHT22;30476;53.468;9.826;2023-09-08T13:32:38;36.00;58.30
44166;DHT22;30476;53.468;9.826;2023-09-08T13:35:05;36.00;58.40
44166;DHT22;30476;53.468;9.826;2023-09-08T13:37:31;36.00;58.70
44166;DHT22;30476;53.468;9.826;2023-09-08T13:39:57;36.00;58.70
44166;DHT22;30476;53.468;9.826;2023-09-08T13:42:23;36.00;58.80
44166;DHT22;30476;53.468;9.826;2023-09-08T13:44:48;36.00;58.30
44166;DHT22;30476;53.468;9.826;2023-09-08T13:47:14;35.90;58.60
44166;DHT22;30476;53.468;9.826;2023-09-08T13:49:40;35.90;58.70
44166;DHT22;30476;53.468;9.826;2023-09-08T13:52:06;36.00;58.60
44166;DHT22;30476;53.468;9.826;2023-09-08T13:54:32;36.00;58.50
44166;DHT22;30476;53.468;9.826;2023-09-08T13:57:03;36.00;58.50
44166;DHT22;30476;53.468;9.826;2023-09-08T13:59:30;36.00;58.10
44166;DHT22;30476;53.468;9.826;2023-09-08T14:01:56;36.00;58.50
44166;DHT22;30476;53.468;9.826;2023-09-08T14:04:23;36.00;58.50
44166;DHT22;30476;53.468;9.826;2023-09-08T14:06:49;36.00;58.40
44166;DHT22;30476;53.468;9.826;2023-09-08T14:09:15;35.90;58.10
44166;DHT22;30476;53.468;9.826;2023-09-08T14:11:41;35.90;59.30
44166;DHT22;30476;53.468;9.826;2023-09-08T14:14:07;35.90;58.10
44166;DHT22;30476;53.468;9.826;2023-09-08T14:16:33;35.80;58.50
44166;DHT22;30476;53.468;9.826;2023-09-08T14:18:59;35.70;58.30
44166;DHT22;30476;53.468;9.826;2023-09-08T14:21:24;35.70;58.30
44166;DHT22;30476;53.468;9.826;2023-09-08T14:23:50;35.70;57.40
44166;DHT22;30476;53.468;9.826;2023-09-08T14:26:16;35.60;57.40
44166;DHT22;30476;53.468;9.826;2023-09-08T14:28:42;35.50;57.50
44166;DHT22;30476;53.468;9.826;2023-09-08T14:31:08;35.30;57.20
44166;DHT22;30476;53.468;9.826;2023-09-08T14:33:34;35.20;58.40
44166;DHT22;30476;53.468;9.826;2023-09-08T14:35:59;35.10;58.40
44166;DHT22;30476;53.468;9.826;2023-09-08T14:38:26;35.00;58.10
44166;DHT22;30476;53.468;9.826;2023-09-08T14:41:02;34.80;57.70
44166;DHT22;30476;53.468;9.826;2023-09-08T14:43:29;34.70;58.00
44166;DHT22;30476;53.468;9.826;2023-09-08T14:45:55;34.50;58.90
44166;DHT22;30476;53.468;9.826;2023-09-08T14:48:25;34.40;58.80
44166;DHT22;30476;53.468;9.826;2023-09-08T14:50:51;34.20;59.00
44166;DHT22;30476;53.468;9.826;2023-09-08T14:53:17;34.10;59.20
44166;DHT22;30476;53.468;9.826;2023-09-08T14:55:43;33.90;59.70
44166;DHT22;30476;53.468;9.826;2023-09-08T14:58:10;33.80;60.10
44166;DHT22;30476;53.468;9.826;2023-09-08T15:00:38;33.70;59.80
44166;DHT22;30476;53.468;9.826;2023-09-08T15:03:05;33.50;60.00
44166;DHT22;30476;53.468;9.826;2023-09-08T15:05:31;33.40;60.40
44166;DHT22;30476;53.468;9.826;2023-09-08T15:07:58;33.30;60.30
44166;DHT22;30476;53.468;9.826;2023-09-08T15:10:24;33.10;60.00
44166;DHT22;30476;53.468;9.826;2023-09-08T15:12:50;33.00;60.20
44166;DHT22;30476;53.468;9.826;2023-09-08T15:15:15;32.80;60.00
44166;DHT22;30476;53.468;9.826;2023-09-08T15:17:44;32.70;60.10
44166;DHT22;30476;53.468;9.826;2023-09-08T15:20:10;32.60;60.60
44166;DHT22;30476;53.468;9.826;2023-09-08T15:22:36;32.50;60.90
44166;DHT22;30476;53.468;9.826;2023-09-08T15:25:01;32.40;61.60
44166;DHT22;30476;53.468;9.826;2023-09-08T15:27:27;32.30;61.60
44166;DHT22;30476;53.468;9.826;2023-09-08T15:29:53;32.20;62.10
44166;DHT22;30476;53.468;9.826;2023-09-08T15:32:19;32.10;61.60
44166;DHT22;30476;53.468;9.826;2023-09-08T15:34:45;32.00;61.60
44166;DHT22;30476;53.468;9.826;2023-09-08T15:37:15;32.00;61.80
44166;DHT22;30476;53.468;9.826;2023-09-08T15:39:41;31.90;62.30